createdAt,value
2018-07-01T00:00:00.938Z,60.70
2018-07-01T00:01:01.002Z,61.75
2018-07-01T00:02:01.061Z,61.46
2018-07-01T00:03:01.123Z,61.37
2018-07-01T00:04:01.183Z,61.66
2018-07-01T00:05:01.245Z,60.41
2018-07-01T00:06:01.306Z,60.03
2018-07-01T00:07:01.367Z,59.83
2018-07-01T00:08:01.430Z,60.12
2018-07-01T00:09:01.490Z,61.08
2018-07-01T00:10:01.552Z,61.66
2018-07-01T00:11:01.617Z,61.56
2018-07-01T00:12:01.673Z,62.20
2018-07-01T00:13:01.736Z,61.63
2018-07-01T00:14:01.799Z,61.72
2018-07-01T00:15:01.856Z,61.53
2018-07-01T00:16:01.919Z,61.63
2018-07-01T00:17:01.979Z,61.34
2018-07-01T00:18:02.041Z,61.72
2018-07-01T00:19:02.102Z,61.34
2018-07-01T00:20:02.163Z,61.43
2018-07-01T00:21:02.223Z,62.49
2018-07-01T00:22:02.285Z,61.72
2018-07-01T00:23:02.345Z,61.94
2018-07-01T00:24:02.406Z,61.43
2018-07-01T00:25:02.472Z,61.43
2018-07-01T00:26:02.531Z,62.10
2018-07-01T00:27:02.590Z,62.77
2018-07-01T00:28:02.651Z,63.54
2018-07-01T00:29:02.712Z,63.26
2018-07-01T00:30:02.773Z,62.77
2018-07-01T00:31:02.833Z,63.06
2018-07-01T00:32:02.894Z,63.16
2018-07-01T00:33:02.956Z,62.59
2018-07-01T00:34:03.019Z,63.26
2018-07-01T00:35:03.080Z,63.26
2018-07-01T00:36:03.138Z,62.68
2018-07-01T00:37:03.201Z,61.15
2018-07-01T00:38:03.261Z,61.63
2018-07-01T00:39:03.321Z,63.42
2018-07-01T00:40:03.383Z,63.99
2018-07-01T00:41:03.443Z,63.42
2018-07-01T00:42:03.506Z,63.26
2018-07-01T00:43:03.564Z,63.13
2018-07-01T00:44:03.625Z,63.42
2018-07-01T00:45:03.687Z,63.06
2018-07-01T00:46:03.748Z,63.26
2018-07-01T00:47:03.809Z,62.84
2018-07-01T00:48:03.869Z,62.17
2018-07-01T00:49:03.931Z,62.65
2018-07-01T00:50:03.992Z,62.59
2018-07-01T00:51:04.051Z,62.55
2018-07-01T00:52:04.117Z,63.13
2018-07-01T00:53:04.174Z,63.80
2018-07-01T00:54:04.235Z,64.37
2018-07-01T00:55:04.294Z,63.99
2018-07-01T00:56:04.357Z,63.80
2018-07-01T00:57:04.415Z,64.76
2018-07-01T00:58:04.478Z,64.76
2018-07-01T00:59:04.537Z,64.37
2018-07-01T01:00:04.599Z,64.56
2018-07-01T01:01:04.662Z,63.70
2018-07-01T01:02:04.721Z,65.05
2018-07-01T01:03:04.783Z,66.35
2018-07-01T01:04:04.845Z,66.74
2018-07-01T01:05:04.904Z,66.64
2018-07-01T01:06:04.965Z,66.64
2018-07-01T01:07:05.027Z,67.11
2018-07-01T01:08:05.090Z,66.83
2018-07-01T01:09:05.147Z,66.64
2018-07-01T01:10:05.206Z,67.50
2018-07-01T01:11:05.314Z,66.83
2018-07-01T01:12:05.328Z,66.93
2018-07-01T01:13:05.388Z,66.54
2018-07-01T01:14:05.449Z,66.64
2018-07-01T01:15:05.509Z,66.54
2018-07-01T01:16:05.570Z,66.25
2018-07-01T01:17:05.630Z,65.58
2018-07-01T01:18:05.692Z,64.47
2018-07-01T01:19:05.751Z,64.28
2018-07-01T01:20:05.965Z,64.92
2018-07-01T01:21:05.876Z,65.30
2018-07-01T01:22:05.934Z,65.78
2018-07-01T01:23:05.995Z,65.78
2018-07-01T01:24:06.054Z,65.30
2018-07-01T01:25:06.115Z,65.88
2018-07-01T01:26:06.180Z,66.64
2018-07-01T01:27:06.235Z,66.06
2018-07-01T01:28:06.297Z,67.11
2018-07-01T01:29:06.358Z,67.88
2018-07-01T01:30:06.421Z,68.42
2018-07-01T01:31:06.478Z,68.04
2018-07-01T01:32:06.540Z,68.04
2018-07-01T01:33:06.600Z,67.88
2018-07-01T01:34:06.660Z,67.76
2018-07-01T01:35:06.719Z,68.13
2018-07-01T01:36:06.781Z,68.71
2018-07-01T01:37:06.841Z,69.29
2018-07-01T01:38:06.902Z,69.57
2018-07-01T01:39:06.961Z,69.67
2018-07-01T01:40:07.023Z,69.67
2018-07-01T01:41:07.084Z,69.19
2018-07-01T01:42:07.145Z,69.19
2018-07-01T01:43:07.203Z,68.90
2018-07-01T01:44:07.264Z,67.76
2018-07-01T01:45:07.325Z,68.33
2018-07-01T01:46:07.385Z,68.23
2018-07-01T01:47:07.446Z,68.80
2018-07-01T01:48:07.506Z,68.42
2018-07-01T01:49:07.567Z,68.13
2018-07-01T01:50:07.630Z,67.27
2018-07-01T01:51:07.686Z,67.76
2018-07-01T01:52:07.766Z,67.21
2018-07-01T01:53:07.807Z,67.11
2018-07-01T01:54:07.878Z,68.13
2018-07-01T01:55:07.929Z,68.62
2018-07-01T01:56:08.001Z,68.62
2018-07-01T01:57:08.056Z,68.04
2018-07-01T01:58:08.109Z,67.76
2018-07-01T01:59:08.167Z,68.42
2018-07-01T02:00:08.240Z,68.42
2018-07-01T02:01:08.289Z,67.94
2018-07-01T02:02:08.350Z,68.23
2018-07-01T02:03:08.411Z,69.09
2018-07-01T02:04:08.470Z,69.92
2018-07-01T02:05:08.531Z,69.92
2018-07-01T02:06:08.591Z,69.48
2018-07-01T02:07:08.649Z,68.87
2018-07-01T02:08:08.714Z,69.19
2018-07-01T02:09:08.770Z,68.90
2018-07-01T02:10:08.832Z,69.38
2018-07-01T02:11:08.889Z,69.25
2018-07-01T02:12:08.953Z,70.11
2018-07-01T02:13:09.012Z,70.87
2018-07-01T02:14:09.072Z,72.12
2018-07-01T02:15:09.132Z,72.22
2018-07-01T02:16:09.192Z,72.37
2018-07-01T02:17:09.251Z,72.85
2018-07-01T02:18:09.313Z,73.52
2018-07-01T02:19:09.372Z,73.52
2018-07-01T02:20:09.432Z,72.88
2018-07-01T02:21:09.492Z,71.36
2018-07-01T02:22:09.553Z,70.97
2018-07-01T02:23:09.613Z,70.01
2018-07-01T02:24:09.672Z,70.11
2018-07-01T02:25:09.737Z,70.87
2018-07-01T02:26:09.793Z,70.87
2018-07-01T02:27:10.103Z,70.11
2018-07-01T02:28:09.912Z,69.82
2018-07-01T02:29:09.990Z,69.35
2018-07-01T02:30:10.034Z,69.15
2018-07-01T02:31:10.094Z,69.73
2018-07-01T02:32:10.153Z,70.97
2018-07-01T02:33:10.213Z,71.45
2018-07-01T02:34:10.275Z,72.22
2018-07-01T02:35:10.333Z,72.47
2018-07-01T02:36:10.393Z,71.93
2018-07-01T02:37:10.454Z,72.75
2018-07-01T02:38:10.515Z,72.94
2018-07-01T02:39:10.575Z,73.14
2018-07-01T02:40:10.635Z,74.19
2018-07-01T02:41:10.695Z,74.66
2018-07-01T02:42:10.761Z,73.80
2018-07-01T02:43:10.814Z,73.23
2018-07-01T02:44:10.873Z,73.90
2018-07-01T02:45:10.934Z,74.28
2018-07-01T02:46:10.995Z,74.66
2018-07-01T02:47:11.053Z,74.57
2018-07-01T02:48:11.113Z,74.95
2018-07-01T02:49:11.173Z,75.14
2018-07-01T02:50:11.233Z,74.66
2018-07-01T02:51:11.295Z,74.85
2018-07-01T02:52:11.353Z,74.95
2018-07-01T02:53:11.413Z,73.61
2018-07-01T02:54:11.478Z,73.71
2018-07-01T02:55:11.535Z,74.95
2018-07-01T02:56:11.622Z,73.52
2018-07-01T02:57:11.653Z,73.33
2018-07-01T02:58:11.712Z,73.80
2018-07-01T02:59:11.772Z,73.33
2018-07-01T03:00:11.833Z,73.04
2018-07-01T03:01:11.892Z,73.80
2018-07-01T03:02:11.953Z,74.48
2018-07-01T03:03:12.262Z,74.85
2018-07-01T03:04:12.072Z,75.05
2018-07-01T03:05:12.132Z,74.57
2018-07-01T03:06:12.191Z,74.57
2018-07-01T03:07:12.251Z,75.20
2018-07-01T03:08:12.309Z,75.87
2018-07-01T03:09:12.620Z,75.96
2018-07-01T03:10:12.431Z,75.20
2018-07-01T03:11:12.490Z,75.10
2018-07-01T03:12:12.548Z,75.01
2018-07-01T03:13:12.613Z,75.68
2018-07-01T03:14:12.673Z,75.87
2018-07-01T03:15:12.730Z,75.78
2018-07-01T03:16:12.790Z,75.87
2018-07-01T03:17:12.850Z,76.25
2018-07-01T03:18:12.909Z,75.68
2018-07-01T03:19:12.968Z,75.24
2018-07-01T03:20:13.029Z,75.34
2018-07-01T03:21:13.088Z,75.68
2018-07-01T03:22:13.147Z,75.78
2018-07-01T03:23:13.205Z,76.25
2018-07-01T03:24:13.265Z,76.64
2018-07-01T03:25:13.328Z,76.54
2018-07-01T03:26:13.386Z,76.64
2018-07-01T03:27:13.444Z,76.35
2018-07-01T03:28:13.504Z,77.01
2018-07-01T03:29:13.567Z,77.21
2018-07-01T03:30:13.625Z,77.50
2018-07-01T03:32:06.152Z,76.45
2018-07-01T03:33:06.211Z,76.16
2018-07-01T03:34:06.268Z,76.25
2018-07-01T03:35:06.327Z,75.87
2018-07-01T03:36:06.388Z,75.96
2018-07-01T03:37:06.446Z,75.78
2018-07-01T03:38:06.506Z,76.45
2018-07-01T03:39:06.566Z,75.39
2018-07-01T03:40:06.627Z,75.05
2018-07-01T03:41:06.685Z,74.48
2018-07-01T03:42:06.745Z,74.95
2018-07-01T03:43:06.805Z,74.66
2018-07-01T03:44:06.863Z,75.87
2018-07-01T03:45:06.925Z,76.25
2018-07-01T03:46:07.133Z,76.45
2018-07-01T03:47:07.044Z,77.30
2018-07-01T03:48:07.108Z,78.07
2018-07-01T03:49:07.161Z,77.59
2018-07-01T03:50:07.279Z,77.21
2018-07-01T03:51:07.280Z,76.25
2018-07-01T03:52:07.342Z,76.64
2018-07-01T03:53:07.399Z,76.92
2018-07-01T03:54:07.459Z,77.11
2018-07-01T03:55:07.519Z,76.73
2018-07-01T03:56:07.584Z,77.21
2018-07-01T03:57:07.638Z,76.16
2018-07-01T03:58:07.699Z,75.87
2018-07-01T03:59:07.757Z,76.54
2018-07-01T04:00:07.821Z,76.73
2018-07-01T04:01:07.876Z,75.96
2018-07-01T04:02:07.941Z,76.45
2018-07-01T04:03:07.996Z,76.73
2018-07-01T04:04:08.055Z,77.11
2018-07-01T04:05:08.115Z,78.36
2018-07-01T04:06:08.183Z,78.83
2018-07-01T04:07:08.233Z,80.17
2018-07-01T04:08:08.293Z,79.69
2018-07-01T04:09:08.353Z,79.50
2018-07-01T04:10:08.415Z,79.31
2018-07-01T04:11:08.473Z,78.83
2018-07-01T04:12:08.683Z,79.88
2018-07-01T04:13:08.592Z,79.69
2018-07-01T04:14:08.651Z,77.97
2018-07-01T04:15:08.711Z,78.07
2018-07-01T04:16:08.771Z,78.45
2018-07-01T04:17:08.830Z,77.11
2018-07-01T04:18:08.889Z,77.30
2018-07-01T04:19:08.949Z,78.07
2018-07-01T04:20:09.009Z,77.40
2018-07-01T04:21:09.068Z,77.97
2018-07-01T04:22:09.129Z,77.97
2018-07-01T04:23:09.188Z,78.07
2018-07-01T04:24:09.247Z,78.45
2018-07-01T04:25:09.307Z,78.64
2018-07-01T04:26:09.368Z,80.36
2018-07-01T04:27:09.678Z,79.31
2018-07-01T04:28:09.487Z,78.55
2018-07-01T04:29:09.548Z,78.74
2018-07-01T04:30:09.605Z,78.45
2018-07-01T04:31:09.736Z,78.26
2018-07-01T04:32:09.726Z,78.16
2018-07-01T04:33:09.783Z,78.36
2018-07-01T04:34:09.845Z,79.41
2018-07-01T04:35:09.904Z,78.36
2018-07-01T04:36:09.963Z,78.55
2018-07-01T04:37:10.023Z,78.45
2018-07-01T04:38:10.082Z,78.45
2018-07-01T04:39:10.142Z,79.02
2018-07-01T04:40:10.203Z,79.50
2018-07-01T04:41:10.262Z,78.93
2018-07-01T04:42:10.322Z,79.22
2018-07-01T04:43:10.382Z,79.79
2018-07-01T04:44:10.440Z,79.69
2018-07-01T04:45:10.501Z,79.41
2018-07-01T04:46:10.561Z,79.22
2018-07-01T04:47:10.620Z,79.50
2018-07-01T04:48:10.680Z,79.41
2018-07-01T04:49:10.766Z,80.27
2018-07-01T04:50:10.798Z,79.79
2018-07-01T04:51:10.858Z,79.02
2018-07-01T04:52:10.920Z,78.93
2018-07-01T04:53:10.978Z,78.64
2018-07-01T04:54:11.038Z,79.22
2018-07-01T04:55:11.133Z,80.07
2018-07-01T04:56:11.168Z,79.79
2018-07-01T04:57:11.217Z,79.98
2018-07-01T04:58:11.278Z,79.98
2018-07-01T04:59:11.337Z,79.88
2018-07-01T05:00:11.397Z,79.50
2018-07-01T05:01:11.457Z,79.50
2018-07-01T05:02:11.591Z,79.69
2018-07-01T05:03:11.576Z,79.41
2018-07-01T05:04:11.636Z,80.07
2018-07-01T05:05:11.695Z,79.31
2018-07-01T05:06:11.756Z,79.50
2018-07-01T05:07:11.817Z,79.73
2018-07-01T05:08:12.126Z,79.69
2018-07-01T05:09:11.935Z,80.50
2018-07-01T05:10:11.995Z,79.73
2018-07-01T05:11:12.055Z,79.64
2018-07-01T05:12:12.116Z,79.25
2018-07-01T05:13:12.174Z,79.35
2018-07-01T05:14:12.387Z,79.73
2018-07-01T05:15:12.294Z,79.54
2018-07-01T05:16:12.354Z,79.54
2018-07-01T05:17:12.504Z,79.16
2018-07-01T05:18:12.474Z,78.97
2018-07-01T05:19:12.534Z,79.73
2018-07-01T05:20:12.596Z,79.35
2018-07-01T05:21:12.653Z,79.35
2018-07-01T05:22:12.714Z,79.44
2018-07-01T05:23:12.774Z,78.78
2018-07-01T05:24:12.835Z,78.78
2018-07-01T05:25:12.898Z,78.43
2018-07-01T05:26:12.956Z,78.49
2018-07-01T05:27:13.015Z,78.24
2018-07-01T05:28:13.074Z,78.81
2018-07-01T05:29:13.136Z,78.43
2018-07-01T05:30:13.197Z,78.05
2018-07-01T05:31:13.255Z,77.28
2018-07-01T05:32:13.315Z,77.28
2018-07-01T05:33:13.374Z,77.28
2018-07-01T05:34:13.440Z,77.95
2018-07-01T05:35:13.495Z,78.72
2018-07-01T05:36:13.560Z,78.38
2018-07-01T05:37:13.617Z,77.99
2018-07-01T05:38:13.676Z,77.70
2018-07-01T05:39:13.737Z,76.75
2018-07-01T05:40:13.796Z,77.61
2018-07-01T05:41:13.856Z,76.56
2018-07-01T05:42:13.916Z,76.08
2018-07-01T05:43:13.977Z,76.37
2018-07-01T05:44:14.038Z,75.98
2018-07-01T05:45:14.099Z,74.74
2018-07-01T05:46:14.159Z,74.45
2018-07-01T05:47:14.222Z,74.74
2018-07-01T05:48:14.279Z,74.20
2018-07-01T05:49:14.341Z,74.49
2018-07-01T05:50:14.399Z,74.20
2018-07-01T05:51:14.460Z,73.91
2018-07-01T05:52:14.523Z,74.11
2018-07-01T05:53:14.582Z,73.82
2018-07-01T05:54:14.643Z,72.77
2018-07-01T05:55:14.703Z,72.77
2018-07-01T05:56:14.763Z,71.84
2018-07-01T05:57:14.914Z,71.66
2018-07-01T05:58:14.884Z,70.98
2018-07-01T05:59:14.944Z,70.98
2018-07-01T06:00:15.007Z,69.93
2018-07-01T06:01:15.065Z,69.35
2018-07-01T06:02:15.126Z,69.83
2018-07-01T06:03:15.186Z,70.50
2018-07-01T06:04:15.248Z,69.45
2018-07-01T06:05:15.308Z,69.29
2018-07-01T06:06:15.369Z,69.01
2018-07-01T06:07:15.431Z,68.14
2018-07-01T06:08:15.492Z,68.81
2018-07-01T06:09:15.551Z,67.95
2018-07-01T06:10:15.616Z,67.99
2018-07-01T06:11:15.674Z,68.18
2018-07-01T06:12:15.735Z,67.99
2018-07-01T06:13:15.796Z,67.99
2018-07-01T06:14:15.859Z,67.35
2018-07-01T06:15:15.929Z,67.44
2018-07-01T06:16:15.985Z,66.33
2018-07-01T06:17:16.040Z,65.65
2018-07-01T06:18:16.104Z,64.69
2018-07-01T06:19:16.163Z,64.63
2018-07-01T06:20:16.224Z,65.56
2018-07-01T06:21:16.285Z,65.78
2018-07-01T06:22:16.398Z,65.49
2018-07-01T06:23:16.408Z,63.57
2018-07-01T06:24:16.469Z,62.45
2018-07-01T06:25:16.532Z,62.07
2018-07-01T06:26:16.593Z,60.24
2018-07-01T06:27:16.654Z,59.09
2018-07-01T06:28:16.716Z,59.09
2018-07-01T06:29:16.777Z,59.09
2018-07-01T06:30:16.838Z,58.99
2018-07-01T06:31:16.900Z,60.08
2018-07-01T06:32:16.963Z,61.52
2018-07-01T06:33:17.025Z,60.56
2018-07-01T06:34:17.086Z,60.08
2018-07-01T06:35:17.148Z,59.02
2018-07-01T06:36:17.212Z,58.35
2018-07-01T06:37:17.271Z,56.45
2018-07-01T06:38:17.334Z,55.88
2018-07-01T06:39:17.397Z,55.59
2018-07-01T06:40:17.460Z,55.78
2018-07-01T06:41:17.520Z,55.30
2018-07-01T06:42:17.583Z,55.30
2018-07-01T06:43:17.645Z,55.78
2018-07-01T06:44:17.707Z,55.98
2018-07-01T06:45:17.769Z,54.91
2018-07-01T06:46:17.831Z,54.36
2018-07-01T06:47:17.893Z,54.85
2018-07-01T06:48:17.956Z,54.65
2018-07-01T06:49:18.019Z,54.08
2018-07-01T06:50:18.081Z,53.59
2018-07-01T06:51:18.142Z,53.21
2018-07-01T06:52:18.207Z,53.11
2018-07-01T06:53:18.266Z,53.81
2018-07-01T06:54:18.334Z,53.31
2018-07-01T06:55:18.392Z,53.98
2018-07-01T06:56:18.476Z,53.21
2018-07-01T06:57:18.516Z,53.23
2018-07-01T06:58:19.052Z,53.62
2018-07-01T06:59:18.641Z,53.72
2018-07-01T07:00:18.706Z,52.66
2018-07-01T07:01:18.766Z,52.30
2018-07-01T07:02:18.830Z,51.82
2018-07-01T07:03:18.892Z,52.01
2018-07-01T07:04:18.954Z,52.40
2018-07-01T07:05:19.016Z,51.62
2018-07-01T07:06:19.079Z,51.14
2018-07-01T07:07:19.141Z,51.05
2018-07-01T07:08:19.205Z,50.95
2018-07-01T07:09:19.267Z,51.05
2018-07-01T07:10:19.329Z,51.05
2018-07-01T07:11:19.392Z,50.76
2018-07-01T07:12:19.457Z,50.88
2018-07-01T07:13:20.920Z,50.21
2018-07-01T07:14:19.581Z,49.24
2018-07-01T07:15:19.644Z,49.43
2018-07-01T07:16:19.718Z,48.66
2018-07-01T07:17:19.769Z,48.47
2018-07-01T07:18:19.832Z,48.66
2018-07-01T07:19:19.896Z,48.47
2018-07-01T07:20:19.958Z,48.88
2018-07-01T07:21:20.022Z,48.40
2018-07-01T07:22:20.084Z,48.42
2018-07-01T07:23:20.147Z,48.11
2018-07-01T07:24:20.209Z,48.40
2018-07-01T07:25:20.272Z,47.53
2018-07-01T07:26:20.338Z,47.53
2018-07-01T07:27:20.400Z,47.34
2018-07-01T07:28:20.463Z,47.27
2018-07-01T07:29:20.526Z,46.76
2018-07-01T07:30:20.590Z,45.70
2018-07-01T07:31:20.652Z,46.76
2018-07-01T07:32:20.715Z,46.37
2018-07-01T07:33:20.779Z,46.86
2018-07-01T07:34:20.842Z,46.69
2018-07-01T07:35:20.906Z,46.78
2018-07-01T07:36:20.969Z,45.82
2018-07-01T07:37:21.032Z,45.62
2018-07-01T07:38:21.099Z,46.11
2018-07-01T07:39:21.158Z,45.62
2018-07-01T07:40:21.226Z,45.17
2018-07-01T07:41:21.285Z,45.14
2018-07-01T07:42:21.350Z,45.72
2018-07-01T07:43:21.413Z,45.94
2018-07-01T07:44:21.478Z,45.36
2018-07-01T07:45:21.543Z,44.85
2018-07-01T07:46:21.603Z,44.18
2018-07-01T07:47:21.667Z,44.18
2018-07-01T07:48:21.730Z,44.27
2018-07-01T07:49:22.045Z,44.37
2018-07-01T07:50:21.866Z,44.95
2018-07-01T07:51:21.921Z,45.17
2018-07-01T07:52:22.095Z,45.36
2018-07-01T07:53:22.048Z,44.68
2018-07-01T07:54:22.111Z,44.10
2018-07-01T07:55:22.176Z,44.39
2018-07-01T07:56:22.240Z,44.29
2018-07-01T07:57:22.301Z,44.01
2018-07-01T07:58:22.367Z,44.29
2018-07-01T07:59:22.430Z,44.29
2018-07-01T08:00:22.497Z,44.01
2018-07-01T08:01:22.560Z,44.10
2018-07-01T08:02:22.622Z,44.59
2018-07-01T08:03:22.686Z,44.49
2018-07-01T08:04:22.749Z,44.59
2018-07-01T08:05:22.812Z,44.10
2018-07-01T08:06:22.876Z,43.93
2018-07-01T08:07:22.951Z,43.84
2018-07-01T08:08:23.005Z,43.54
2018-07-01T08:09:23.066Z,43.14
2018-07-01T08:10:23.134Z,43.16
2018-07-01T08:11:23.196Z,42.75
2018-07-01T08:12:23.259Z,42.97
2018-07-01T08:13:23.322Z,42.77
2018-07-01T08:14:23.387Z,42.77
2018-07-01T08:15:23.450Z,42.77
2018-07-01T08:16:23.665Z,42.87
2018-07-01T08:17:23.578Z,42.48
2018-07-01T08:18:23.642Z,43.54
2018-07-01T08:19:23.707Z,42.87
2018-07-01T08:20:23.770Z,43.08
2018-07-01T08:21:23.834Z,42.79
2018-07-01T08:22:23.897Z,42.29
2018-07-01T08:23:23.964Z,42.50
2018-07-01T08:24:24.025Z,42.19
2018-07-01T08:25:24.091Z,42.48
2018-07-01T08:26:24.154Z,42.68
2018-07-01T08:27:24.219Z,42.58
2018-07-01T08:28:24.281Z,42.39
2018-07-01T08:29:24.678Z,42.39
2018-07-01T08:30:24.410Z,42.39
2018-07-01T08:31:24.474Z,42.68
2018-07-01T08:32:24.539Z,42.58
2018-07-01T08:33:24.602Z,42.79
2018-07-01T08:34:24.678Z,42.31
2018-07-01T08:35:24.730Z,42.21
2018-07-01T08:36:24.796Z,42.24
2018-07-01T08:37:24.857Z,41.85
2018-07-01T08:38:24.922Z,41.66
2018-07-01T08:39:24.991Z,42.14
2018-07-01T08:40:25.052Z,41.46
2018-07-01T08:41:25.114Z,41.17
2018-07-01T08:42:25.180Z,41.75
2018-07-01T08:43:25.242Z,41.36
2018-07-01T08:44:25.308Z,41.39
2018-07-01T08:45:25.371Z,41.56
2018-07-01T08:46:25.438Z,41.46
2018-07-01T08:47:25.500Z,41.56
2018-07-01T08:48:25.567Z,40.71
2018-07-01T08:49:25.629Z,40.13
2018-07-01T08:50:25.694Z,40.13
2018-07-01T08:51:25.759Z,40.13
2018-07-01T08:52:25.898Z,40.59
2018-07-01T08:53:25.889Z,41.17
2018-07-01T08:54:25.954Z,40.13
2018-07-01T08:55:26.017Z,40.23
2018-07-01T08:56:26.084Z,40.23
2018-07-01T08:57:26.147Z,40.50
2018-07-01T08:58:26.212Z,40.78
2018-07-01T08:59:26.279Z,40.50
2018-07-01T09:00:26.344Z,40.69
2018-07-01T09:01:26.404Z,40.19
2018-07-01T09:02:26.470Z,40.28
2018-07-01T09:03:26.535Z,40.69
2018-07-01T09:04:26.600Z,40.11
2018-07-01T09:05:26.664Z,40.13
2018-07-01T09:06:26.729Z,40.59
2018-07-01T09:07:26.795Z,40.40
2018-07-01T09:08:26.918Z,40.40
2018-07-01T09:09:26.922Z,40.11
2018-07-01T09:10:26.988Z,40.13
2018-07-01T09:11:27.059Z,39.16
2018-07-01T09:12:27.116Z,40.23
2018-07-01T09:13:27.181Z,39.72
2018-07-01T09:14:27.246Z,40.23
2018-07-01T09:15:27.311Z,39.45
2018-07-01T09:16:27.376Z,39.43
2018-07-01T09:17:27.443Z,39.36
2018-07-01T09:18:27.505Z,40.23
2018-07-01T09:19:27.570Z,40.15
2018-07-01T09:20:27.637Z,39.18
2018-07-01T09:21:27.698Z,38.50
2018-07-01T09:22:27.763Z,38.02
2018-07-01T09:23:27.886Z,38.21
2018-07-01T09:24:27.894Z,38.70
2018-07-01T09:25:27.957Z,38.79
2018-07-01T09:26:28.024Z,38.91
2018-07-01T09:27:28.089Z,38.35
2018-07-01T09:28:28.153Z,38.35
2018-07-01T09:29:28.218Z,38.43
2018-07-01T09:30:28.283Z,37.46
2018-07-01T09:31:28.351Z,37.94
2018-07-01T09:32:28.413Z,37.65
2018-07-01T09:33:28.477Z,37.26
2018-07-01T09:34:28.574Z,37.07
2018-07-01T09:35:28.610Z,38.33
2018-07-01T09:36:28.677Z,37.77
2018-07-01T09:37:28.744Z,37.28
2018-07-01T09:38:28.805Z,37.21
2018-07-01T09:39:28.875Z,36.78
2018-07-01T09:40:28.936Z,37.19
2018-07-01T09:41:29.001Z,36.99
2018-07-01T09:42:29.067Z,36.60
2018-07-01T09:43:29.208Z,36.80
2018-07-01T09:44:29.198Z,36.99
2018-07-01T09:45:29.262Z,37.48
2018-07-01T09:46:29.328Z,37.28
2018-07-01T09:47:29.396Z,36.99
2018-07-01T09:48:29.462Z,36.99
2018-07-01T09:49:29.524Z,37.19
2018-07-01T09:50:29.761Z,37.09
2018-07-01T09:51:29.708Z,36.32
2018-07-01T09:52:29.721Z,36.60
2018-07-01T09:53:29.786Z,36.60
2018-07-01T09:54:29.853Z,36.51
2018-07-01T09:55:30.462Z,36.72
2018-07-01T09:56:29.986Z,37.48
2018-07-01T09:57:30.049Z,37.19
2018-07-01T09:58:30.116Z,37.48
2018-07-01T09:59:30.181Z,37.59
2018-07-01T10:00:30.247Z,36.72
2018-07-01T10:01:30.311Z,36.91
2018-07-01T10:02:30.380Z,37.01
2018-07-01T10:03:30.447Z,36.16
2018-07-01T10:04:30.512Z,35.57
2018-07-01T10:05:30.576Z,34.91
2018-07-01T10:06:30.645Z,35.01
2018-07-01T10:07:30.710Z,35.69
2018-07-01T10:08:30.778Z,35.21
2018-07-01T10:09:30.844Z,35.40
2018-07-01T10:10:30.912Z,35.32
2018-07-01T10:11:30.980Z,35.22
2018-07-01T10:12:31.049Z,35.03
2018-07-01T10:13:31.117Z,35.03
2018-07-01T10:14:31.186Z,34.46
2018-07-01T10:15:31.256Z,33.96
2018-07-01T10:16:31.327Z,34.06
2018-07-01T10:17:31.395Z,33.38
2018-07-01T10:18:31.465Z,33.59
2018-07-01T10:19:31.537Z,33.20
2018-07-01T10:20:31.757Z,33.41
2018-07-01T10:21:31.678Z,32.65
2018-07-01T10:22:31.748Z,31.97
2018-07-01T10:23:31.820Z,31.60
2018-07-01T10:24:31.894Z,31.68
2018-07-01T10:25:31.964Z,31.60
2018-07-01T10:26:32.065Z,31.51
2018-07-01T10:27:32.111Z,31.43
2018-07-01T10:28:32.185Z,30.28
2018-07-01T10:29:32.254Z,30.38
2018-07-01T10:30:32.328Z,30.47
2018-07-01T10:31:32.403Z,29.81
2018-07-01T10:32:32.486Z,29.42
2018-07-01T10:33:32.550Z,29.19
2018-07-01T10:34:32.623Z,29.00
2018-07-01T10:35:32.698Z,29.69
2018-07-01T10:36:32.773Z,29.32
2018-07-01T10:37:32.846Z,29.21
2018-07-01T10:38:32.920Z,29.49
2018-07-01T10:39:32.996Z,30.91
2018-07-01T10:40:33.071Z,30.72
2018-07-01T10:41:33.146Z,30.91
2018-07-01T10:42:33.220Z,30.90
2018-07-01T10:43:33.294Z,31.48
2018-07-01T10:44:33.371Z,31.60
2018-07-01T10:45:33.444Z,31.87
2018-07-01T10:46:33.518Z,31.60
2018-07-01T10:47:33.599Z,30.85
2018-07-01T10:48:33.668Z,30.08
2018-07-01T10:49:33.743Z,29.03
2018-07-01T10:50:33.817Z,28.75
2018-07-01T10:51:33.965Z,28.86
2018-07-01T10:52:33.968Z,28.96
2018-07-01T10:53:34.040Z,28.77
2018-07-01T10:54:34.116Z,28.18
2018-07-01T10:55:34.192Z,28.26
2018-07-01T10:56:34.266Z,28.47
2018-07-01T10:57:34.352Z,28.05
2018-07-01T10:58:34.417Z,28.70
2018-07-01T10:59:35.087Z,29.29
2018-07-01T11:00:35.173Z,29.30
2018-07-01T11:01:35.208Z,29.40
2018-07-01T11:02:35.355Z,29.89
2018-07-01T11:03:35.433Z,28.74
2018-07-01T11:04:35.553Z,28.36
2018-07-01T11:05:35.310Z,28.34
2018-07-01T11:06:35.020Z,28.54
2018-07-01T11:07:35.112Z,28.18
2018-07-01T11:08:35.176Z,27.90
2018-07-01T11:09:35.245Z,27.89
2018-07-01T11:10:35.320Z,27.90
2018-07-01T11:11:35.397Z,27.31
2018-07-01T11:12:35.473Z,27.22
2018-07-01T11:13:35.548Z,26.53
2018-07-01T11:14:35.622Z,26.43
2018-07-01T11:15:35.697Z,26.53
2018-07-01T11:16:35.773Z,26.73
2018-07-01T11:17:35.847Z,26.82
2018-07-01T11:18:35.923Z,26.73
2018-07-01T11:19:35.999Z,26.34
2018-07-01T11:20:36.076Z,26.63
2018-07-01T11:21:36.151Z,26.54
2018-07-01T11:22:36.226Z,26.42
2018-07-01T11:23:36.301Z,27.68
2018-07-01T11:24:36.377Z,28.14
2018-07-01T11:25:36.452Z,29.08
2018-07-01T11:26:36.609Z,29.66
2018-07-01T11:27:36.662Z,29.28
2018-07-01T11:28:36.681Z,30.44
2018-07-01T11:29:36.755Z,30.15
2018-07-01T11:30:36.831Z,30.80
2018-07-01T11:31:36.906Z,30.30
2018-07-01T11:32:36.984Z,30.88
2018-07-01T11:33:37.060Z,30.90
2018-07-01T11:34:37.132Z,29.47
2018-07-01T11:35:37.206Z,28.70
2018-07-01T11:36:37.282Z,28.70
2018-07-01T11:37:37.607Z,29.10
2018-07-01T11:38:37.431Z,28.80
2018-07-01T11:39:37.504Z,28.90
2018-07-01T11:40:37.579Z,28.90
2018-07-01T11:41:37.654Z,28.04
2018-07-01T11:42:37.770Z,27.47
2018-07-01T11:43:37.802Z,27.76
2018-07-01T11:44:37.913Z,27.26
2018-07-01T11:45:37.951Z,28.79
2018-07-01T11:46:38.027Z,29.02
2018-07-01T11:47:38.100Z,28.65
2018-07-01T11:48:38.176Z,27.68
2018-07-01T11:49:38.247Z,27.58
2018-07-01T11:50:38.322Z,27.66
2018-07-01T11:51:38.397Z,27.68
2018-07-01T11:52:38.472Z,27.55
2018-07-01T11:53:38.546Z,27.84
2018-07-01T11:54:38.620Z,27.65
2018-07-01T11:55:38.696Z,26.70
2018-07-01T11:56:38.787Z,26.90
2018-07-01T11:57:38.843Z,26.81
2018-07-01T11:58:38.920Z,25.36
2018-07-01T11:59:38.993Z,26.53
2018-07-01T12:00:39.067Z,26.04
2018-07-01T12:01:39.148Z,25.43
2018-07-01T12:02:39.219Z,25.91
2018-07-01T12:03:39.441Z,26.67
2018-07-01T12:04:39.365Z,26.95
2018-07-01T12:05:39.441Z,27.26
2018-07-01T12:06:39.514Z,26.59
2018-07-01T12:07:39.589Z,26.58
2018-07-01T12:08:39.664Z,26.78
2018-07-01T12:09:39.737Z,26.20
2018-07-01T12:10:39.813Z,26.30
2018-07-01T12:11:39.889Z,26.13
2018-07-01T12:12:39.962Z,25.62
2018-07-01T12:13:40.036Z,25.45
2018-07-01T12:14:40.113Z,25.45
2018-07-01T12:15:40.185Z,25.43
2018-07-01T12:16:40.261Z,25.63
2018-07-01T12:17:40.335Z,25.45
2018-07-01T12:18:40.413Z,24.02
2018-07-01T12:19:40.484Z,24.00
2018-07-01T12:20:40.561Z,24.12
2018-07-01T12:21:40.634Z,23.94
2018-07-01T12:22:40.707Z,23.83
2018-07-01T12:23:40.840Z,24.43
2018-07-01T12:24:40.857Z,24.02
2018-07-01T12:25:40.931Z,24.57
2018-07-01T12:26:41.007Z,26.29
2018-07-01T12:27:41.084Z,27.06
2018-07-01T12:28:41.216Z,26.42
2018-07-01T12:29:41.230Z,25.46
2018-07-01T12:30:41.307Z,25.34
2018-07-01T12:31:41.382Z,25.35
2018-07-01T12:32:41.456Z,25.63
2018-07-01T12:33:41.529Z,25.36
2018-07-01T12:34:41.675Z,25.47
2018-07-01T12:35:41.680Z,24.90
2018-07-01T12:36:41.756Z,24.33
2018-07-01T12:37:41.832Z,24.25
2018-07-01T12:38:41.905Z,23.18
2018-07-01T12:39:41.983Z,22.88
2018-07-01T12:40:42.057Z,23.46
2018-07-01T12:41:42.131Z,23.54
2018-07-01T12:42:42.204Z,23.93
2018-07-01T12:43:42.282Z,24.21
2018-07-01T12:44:42.357Z,24.32
2018-07-01T12:45:42.431Z,24.32
2018-07-01T12:46:42.508Z,24.50
2018-07-01T12:47:42.591Z,24.12
2018-07-01T12:48:42.658Z,23.07
2018-07-01T12:49:42.731Z,21.92
2018-07-01T12:50:42.807Z,22.39
2018-07-01T12:51:42.884Z,23.37
2018-07-01T12:52:42.958Z,24.49
2018-07-01T12:53:43.035Z,25.36